Terminal Aerodrome Forecast
Issued by NWS Birmingham, AL

Home | Current Version | Previous Version | Text Only | Print | Product List | Glossary On
Versions: 1 2 3 4 5 6 7 8 9 10 11 12 13 14 15 16 17 18 19
000
FTUS44 KBMX 061400 AAA
TAFBHM
TAF AMD
KBHM 061412Z 0614/0712 36008KT P6SM SCT012
      TEMPO 0614/0616 BKN012
     FM070300 00000KT P6SM SKC=

USA.gov is the U.S. government's official web portal to all federal, state and local government web resources and services.